George Town, Malaysia
Current Conditions -  °F | °C
As of 1:00 PM on Saturday 25 Oct 2014 (Local Time) from WMKB Reporting Station
Broken Clouds Broken Clouds  
Wind Chill: 88°   Ceiling: 27000
Heat Index: 98°   Visibility: 6mi
Dew Point: 75°   Wind: 7mph
Humidity: 66%   Direction: 260°W
Pressure: 29.83"   Gusts: NA
Location:  5.42°N, 100.33°E
Report Text: WMKB 250500Z 26006KT 210V010 9999 FEW017CB SCT020 BKN270 31/24 Q1010 NOSIG
Loading
Personal Weather Stations






























Interactive Weather Map
Tropical Storm Tracking
New forecast layout! Learn more

10-Day Weather Forecast

Advertisements
Track Severe Weather on mobile